createdAt,value
2023-05-14T00:02:21.319Z,100130.97
2023-05-14T00:07:23.310Z,100121.03
2023-05-14T00:12:26.401Z,100121.94
2023-05-14T00:17:28.262Z,100126.00
2023-05-14T00:22:30.021Z,100120.09
2023-05-14T00:27:31.867Z,100115.88
2023-05-14T00:32:33.901Z,100119.56
2023-05-14T00:37:36.474Z,100109.75
2023-05-14T00:42:38.426Z,100106.94
2023-05-14T00:47:41.026Z,100110.78
2023-05-14T00:52:43.157Z,100107.19
2023-05-14T00:57:45.336Z,100103.66
2023-05-14T01:02:47.309Z,100093.66
2023-05-14T01:08:05.366Z,100103.06
2023-05-14T01:13:27.500Z,100099.81
2023-05-14T01:18:31.492Z,100089.09
2023-05-14T01:23:33.583Z,100103.22
2023-05-14T01:28:37.625Z,100098.00
2023-05-14T01:33:42.409Z,100091.59
2023-05-14T01:38:47.275Z,100104.34
2023-05-14T01:43:49.458Z,100101.16
2023-05-14T01:48:51.302Z,100097.41
2023-05-14T01:53:53.420Z,100087.00
2023-05-14T01:58:57.628Z,100087.22
2023-05-14T02:03:59.811Z,100089.84
2023-05-14T02:09:02.532Z,100086.72
2023-05-14T02:14:04.393Z,100080.91
2023-05-14T02:19:06.461Z,100078.78
2023-05-14T02:24:08.335Z,100083.63
2023-05-14T02:29:10.508Z,100082.53
2023-05-14T02:34:12.288Z,100075.19
2023-05-14T02:39:14.069Z,100073.34
2023-05-14T02:44:15.883Z,100072.00
2023-05-14T02:49:17.700Z,100064.63
2023-05-14T02:54:19.428Z,100065.72
2023-05-14T02:59:21.932Z,100061.44
2023-05-14T03:04:24.016Z,100061.69
2023-05-14T03:09:25.790Z,100065.31
2023-05-14T03:14:27.531Z,100057.75
2023-05-14T03:19:29.314Z,100064.56
2023-05-14T03:24:31.595Z,100067.53
2023-05-14T03:29:33.363Z,100065.16
2023-05-14T03:34:35.322Z,100060.81
2023-05-14T03:39:37.225Z,100058.84
2023-05-14T03:44:39.820Z,100055.19
2023-05-14T03:49:41.648Z,100054.47
2023-05-14T03:54:45.907Z,100053.72
2023-05-14T03:59:47.754Z,100055.38
2023-05-14T04:04:49.560Z,100051.44
2023-05-14T04:09:56.970Z,100060.59
2023-05-14T04:14:58.930Z,100064.16
2023-05-14T04:20:00.899Z,100066.50
2023-05-14T04:25:02.655Z,100066.44
2023-05-14T04:30:04.847Z,100068.34
2023-05-14T04:35:07.346Z,100062.03
2023-05-14T04:40:11.398Z,100067.53
2023-05-14T04:45:13.652Z,100070.41
2023-05-14T04:50:15.855Z,100076.16
2023-05-14T04:55:17.629Z,100074.63
2023-05-14T05:00:22.021Z,100077.94
2023-05-14T05:05:24.535Z,100078.34
2023-05-14T05:10:26.425Z,100079.06
2023-05-14T05:15:28.487Z,100077.97
2023-05-14T05:20:30.299Z,100079.97
2023-05-14T05:25:32.115Z,100081.25
2023-05-14T05:30:34.176Z,100077.47
2023-05-14T05:35:35.939Z,100080.09
2023-05-14T05:40:37.790Z,100079.22
2023-05-14T05:45:39.628Z,100089.31
2023-05-14T05:50:41.389Z,100089.53
2023-05-14T05:55:43.162Z,100094.25
2023-05-14T06:00:45.697Z,100095.78
2023-05-14T06:05:47.580Z,100087.81
2023-05-14T06:10:49.639Z,100080.81
2023-05-14T06:15:51.360Z,100082.84
2023-05-14T06:20:53.104Z,100082.34
2023-05-14T06:25:54.902Z,100078.34
2023-05-14T06:30:56.745Z,100079.47
2023-05-14T06:35:59.814Z,100083.03
2023-05-14T06:41:01.601Z,100082.38
2023-05-14T06:46:03.595Z,100083.94
2023-05-14T06:51:05.411Z,100081.63
2023-05-14T06:56:07.951Z,100073.66
2023-05-14T07:01:09.793Z,100075.72
2023-05-14T07:06:13.531Z,100073.72
2023-05-14T07:11:15.565Z,100078.00
2023-05-14T07:16:17.350Z,100074.47
2023-05-14T07:21:19.366Z,100070.31
2023-05-14T07:26:21.543Z,100068.25
2023-05-14T07:31:23.524Z,100062.50
2023-05-14T07:36:25.366Z,100049.41
2023-05-14T07:41:27.142Z,100041.47
2023-05-14T07:46:28.954Z,100042.31
2023-05-14T07:51:33.451Z,100029.34
2023-05-14T07:56:35.201Z,100028.72
2023-05-14T08:01:39.156Z,100027.06
2023-05-14T08:06:41.336Z,100024.53
2023-05-14T08:11:44.124Z,100022.03
2023-05-14T08:16:45.983Z,100031.22
2023-05-14T08:21:48.050Z,100025.53
2023-05-14T08:26:49.952Z,100022.47
2023-05-14T08:31:51.780Z,100013.44
2023-05-14T08:36:53.701Z,100008.09
2023-05-14T08:41:59.488Z,99992.91
2023-05-14T08:47:02.006Z,99986.16
2023-05-14T08:52:04.275Z,99976.72
2023-05-14T08:57:09.388Z,99960.50
2023-05-14T09:02:14.766Z,99964.91
2023-05-14T09:07:16.880Z,99962.44
2023-05-14T09:12:18.995Z,99960.16
2023-05-14T09:17:21.176Z,99942.00
2023-05-14T09:22:22.983Z,99946.78
2023-05-14T09:27:25.986Z,99936.72
2023-05-14T09:32:27.810Z,99932.50
2023-05-14T09:37:29.987Z,99922.31
2023-05-14T09:42:31.726Z,99916.66
2023-05-14T09:47:33.680Z,99911.84
2023-05-14T09:52:35.665Z,99901.31
2023-05-14T09:57:38.735Z,99896.84
2023-05-14T10:02:43.061Z,99900.94
2023-05-14T10:07:48.515Z,99898.63
2023-05-14T10:13:04.751Z,99908.66
2023-05-14T10:18:19.017Z,99885.56
2023-05-14T10:23:20.863Z,99895.81
2023-05-14T10:28:22.805Z,99879.69
2023-05-14T10:33:24.589Z,99876.84
2023-05-14T10:38:32.144Z,99873.31
2023-05-14T10:43:38.538Z,99884.13
2023-05-14T10:48:43.033Z,99870.38
2023-05-14T10:53:44.918Z,99875.13
2023-05-14T10:58:46.674Z,99869.81
2023-05-14T11:03:53.458Z,99868.97
2023-05-14T11:08:56.267Z,99852.06
2023-05-14T11:13:58.196Z,99850.41
2023-05-14T11:19:06.447Z,99845.13
2023-05-14T11:24:08.320Z,99836.63
2023-05-14T11:29:10.691Z,99820.78
2023-05-14T11:34:12.422Z,99819.72
2023-05-14T11:39:19.932Z,99816.16
2023-05-14T11:44:22.585Z,99818.00
2023-05-14T11:49:29.453Z,99812.97
2023-05-14T11:54:32.357Z,99800.56
2023-05-14T11:59:34.473Z,99807.13
2023-05-14T12:04:36.721Z,99803.50
2023-05-14T12:09:48.986Z,99792.84
2023-05-14T12:14:51.182Z,99789.81
2023-05-14T12:19:54.235Z,99787.78
2023-05-14T12:24:58.237Z,99773.97
2023-05-14T12:30:20.013Z,99765.19
2023-05-14T12:35:23.598Z,99757.34
2023-05-14T12:40:26.697Z,99749.03
2023-05-14T12:45:29.283Z,99746.78
2023-05-14T12:50:31.564Z,99753.47
2023-05-14T12:55:34.480Z,99732.34
2023-05-14T13:00:36.502Z,99727.69
2023-05-14T13:05:38.289Z,99715.94
2023-05-14T13:10:40.248Z,99715.09
2023-05-14T13:15:42.485Z,99700.41
2023-05-14T13:20:46.677Z,99689.66
2023-05-14T13:25:51.695Z,99694.66
2023-05-14T13:31:22.764Z,99686.19
2023-05-14T13:36:24.748Z,99680.97
2023-05-14T13:41:26.636Z,99669.47
2023-05-14T13:46:28.510Z,99658.06
2023-05-14T13:51:31.484Z,99670.84
2023-05-14T13:56:33.290Z,99646.41
2023-05-14T14:01:35.122Z,99647.75
2023-05-14T14:06:37.076Z,99653.38
2023-05-14T14:11:39.227Z,99643.97
2023-05-14T14:16:41.103Z,99645.50
2023-05-14T14:21:43.066Z,99636.19
2023-05-14T14:26:44.924Z,99633.03
2023-05-14T14:31:46.696Z,99628.50
2023-05-14T14:36:48.550Z,99612.44
2023-05-14T14:41:50.474Z,99611.59
2023-05-14T14:46:52.222Z,99635.19
2023-05-14T14:51:54.659Z,99658.56
2023-05-14T14:56:56.600Z,99662.75
2023-05-14T15:01:58.634Z,99669.69
2023-05-14T15:07:02.108Z,99671.50
2023-05-14T15:12:04.095Z,99677.94
2023-05-14T15:17:05.950Z,99683.66
2023-05-14T15:22:07.783Z,99691.50
2023-05-14T15:27:09.594Z,99690.78
2023-05-14T15:32:11.596Z,99684.25
2023-05-14T15:37:13.321Z,99682.34
2023-05-14T15:42:15.100Z,99678.91
2023-05-14T15:47:16.897Z,99677.63
2023-05-14T15:52:18.673Z,99663.19
2023-05-14T15:57:20.390Z,99668.47
2023-05-14T16:02:22.344Z,99668.03
2023-05-14T16:07:24.242Z,99667.75
2023-05-14T16:12:26.377Z,99664.41
2023-05-14T16:17:28.606Z,99657.28
2023-05-14T16:22:32.667Z,99652.81
2023-05-14T16:27:34.724Z,99647.38
2023-05-14T16:32:36.599Z,99656.50
2023-05-14T16:37:38.411Z,99653.22
2023-05-14T16:42:40.675Z,99652.47
2023-05-14T16:47:42.575Z,99658.81
2023-05-14T16:52:44.455Z,99661.88
2023-05-14T16:57:46.242Z,99659.59
2023-05-14T17:02:49.847Z,99671.13
2023-05-14T17:07:51.728Z,99673.09
2023-05-14T17:12:53.565Z,99685.78
2023-05-14T17:17:56.067Z,99675.50
2023-05-14T17:22:58.521Z,99680.38
2023-05-14T17:28:00.578Z,99679.69
2023-05-14T17:33:02.821Z,99683.22
2023-05-14T17:38:04.818Z,99686.81
2023-05-14T17:43:08.653Z,99695.06
2023-05-14T17:48:10.571Z,99677.38
2023-05-14T17:53:12.406Z,99682.09
2023-05-14T17:58:15.546Z,99693.34
2023-05-14T18:03:17.562Z,99691.94
2023-05-14T18:08:19.570Z,99691.81
2023-05-14T18:13:21.364Z,99687.78
2023-05-14T18:18:24.088Z,99696.25
2023-05-14T18:23:25.964Z,99701.66
2023-05-14T18:28:27.992Z,99710.00
2023-05-14T18:33:31.224Z,99719.09
2023-05-14T18:38:32.967Z,99717.00
2023-05-14T18:43:34.764Z,99722.47
2023-05-14T18:48:38.128Z,99732.78
2023-05-14T18:53:40.128Z,99727.25
2023-05-14T18:58:41.872Z,99731.81
2023-05-14T19:03:43.924Z,99731.50
2023-05-14T19:08:46.542Z,99728.94
2023-05-14T19:13:49.622Z,99720.97
2023-05-14T19:18:51.541Z,99736.72
2023-05-14T19:23:53.383Z,99731.34
2023-05-14T19:28:58.589Z,99734.31
2023-05-14T19:34:00.431Z,99739.81
2023-05-14T19:39:02.192Z,99731.53
2023-05-14T19:44:04.016Z,99736.06
2023-05-14T19:49:06.151Z,99725.53
2023-05-14T19:54:08.042Z,99727.72
2023-05-14T19:59:09.836Z,99738.78
2023-05-14T20:04:14.123Z,99731.94
2023-05-14T20:09:15.889Z,99732.88
2023-05-14T20:14:17.728Z,99735.63
2023-05-14T20:19:21.402Z,99737.16
2023-05-14T20:24:23.273Z,99724.25
2023-05-14T20:29:25.071Z,99726.91
2023-05-14T20:34:26.866Z,99713.66
2023-05-14T20:39:28.603Z,99715.09
2023-05-14T20:44:30.410Z,99704.34
2023-05-14T20:49:32.132Z,99707.41
2023-05-14T20:54:33.854Z,99705.28
2023-05-14T20:59:35.707Z,99693.72
2023-05-14T21:04:38.295Z,99688.72
2023-05-14T21:09:40.739Z,99699.16
2023-05-14T21:14:42.823Z,99700.00
2023-05-14T21:19:44.610Z,99696.78
2023-05-14T21:24:46.418Z,99693.81
2023-05-14T21:29:48.196Z,99689.97
2023-05-14T21:34:49.973Z,99702.63
2023-05-14T21:39:51.945Z,99693.78
2023-05-14T21:44:53.765Z,99691.84
2023-05-14T21:49:55.500Z,99689.72
2023-05-14T21:54:57.230Z,99690.56
2023-05-14T21:59:58.939Z,99685.94
2023-05-14T22:05:00.729Z,99684.22
2023-05-14T22:10:02.455Z,99683.16
2023-05-14T22:15:05.800Z,99686.16
2023-05-14T22:20:09.714Z,99688.44
2023-05-14T22:25:11.448Z,99679.72
2023-05-14T22:30:13.378Z,99676.84
2023-05-14T22:35:15.485Z,99679.91
2023-05-14T22:40:17.274Z,99675.59
2023-05-14T22:45:19.067Z,99675.22
2023-05-14T22:50:20.855Z,99673.97
2023-05-14T22:55:22.955Z,99677.38
2023-05-14T23:00:25.331Z,99672.19
2023-05-14T23:05:27.286Z,99659.84
2023-05-14T23:10:29.642Z,99666.09
2023-05-14T23:15:31.713Z,99669.63
2023-05-14T23:20:33.507Z,99664.09
2023-05-14T23:25:35.279Z,99658.53
2023-05-14T23:30:37.001Z,99659.19
2023-05-14T23:35:39.748Z,99654.97
2023-05-14T23:40:41.560Z,99647.47
2023-05-14T23:45:43.369Z,99642.47
2023-05-14T23:50:45.246Z,99630.41
2023-05-14T23:55:47.330Z,99627.69
